sensor_id;sensor_type;location;lat;lon;timestamp;temperature;humidity
10883;DHT22;5494;51.796;10.952;2022-10-16T00:01:47;15.50;99.90
10883;DHT22;5494;51.796;10.952;2022-10-16T00:04:16;15.50;99.90
10883;DHT22;5494;51.796;10.952;2022-10-16T00:06:45;15.50;99.90
10883;DHT22;5494;51.796;10.952;2022-10-16T00:09:14;15.40;99.90
10883;DHT22;5494;51.796;10.952;2022-10-16T00:11:42;15.40;99.90
10883;DHT22;5494;51.796;10.952;2022-10-16T00:14:14;15.40;99.90
10883;DHT22;5494;51.796;10.952;2022-10-16T00:16:43;15.40;99.90
10883;DHT22;5494;51.796;10.952;2022-10-16T00:19:12;15.30;99.90
10883;DHT22;5494;51.796;10.952;2022-10-16T00:21:40;15.30;99.90
10883;DHT22;5494;51.796;10.952;2022-10-16T00:24:10;15.20;99.90
10883;DHT22;5494;51.796;10.952;2022-10-16T00:26:39;15.20;99.90
10883;DHT22;5494;51.796;10.952;2022-10-16T00:29:08;15.00;99.90
10883;DHT22;5494;51.796;10.952;2022-10-16T00:31:38;13.90;99.90
10883;DHT22;5494;51.796;10.952;2022-10-16T00:34:07;14.90;99.90
10883;DHT22;5494;51.796;10.952;2022-10-16T00:36:36;14.90;99.90
10883;DHT22;5494;51.796;10.952;2022-10-16T00:39:05;14.80;99.90
10883;DHT22;5494;51.796;10.952;2022-10-16T00:41:34;14.70;99.90
10883;DHT22;5494;51.796;10.952;2022-10-16T00:44:04;14.70;99.90
10883;DHT22;5494;51.796;10.952;2022-10-16T00:47:19;14.60;99.90
10883;DHT22;5494;51.796;10.952;2022-10-16T00:49:55;14.50;99.90
10883;DHT22;5494;51.796;10.952;2022-10-16T00:52:28;14.40;99.90
10883;DHT22;5494;51.796;10.952;2022-10-16T00:54:58;14.30;99.90
10883;DHT22;5494;51.796;10.952;2022-10-16T00:57:29;14.30;99.90
10883;DHT22;5494;51.796;10.952;2022-10-16T00:59:57;14.30;99.90
10883;DHT22;5494;51.796;10.952;2022-10-16T01:02:28;14.20;99.90
10883;DHT22;5494;51.796;10.952;2022-10-16T01:04:57;14.20;99.90
10883;DHT22;5494;51.796;10.952;2022-10-16T01:07:36;14.20;99.90
10883;DHT22;5494;51.796;10.952;2022-10-16T01:10:24;14.20;99.90
10883;DHT22;5494;51.796;10.952;2022-10-16T01:13:02;14.20;99.90
10883;DHT22;5494;51.796;10.952;2022-10-16T01:15:36;14.20;99.90
10883;DHT22;5494;51.796;10.952;2022-10-16T01:18:13;14.20;99.90
10883;DHT22;5494;51.796;10.952;2022-10-16T01:20:49;14.20;99.90
10883;DHT22;5494;51.796;10.952;2022-10-16T01:23:31;14.30;99.90
10883;DHT22;5494;51.796;10.952;2022-10-16T01:26:20;14.20;99.90
10883;DHT22;5494;51.796;10.952;2022-10-16T01:29:04;14.30;99.90
10883;DHT22;5494;51.796;10.952;2022-10-16T01:31:39;14.30;99.90
10883;DHT22;5494;51.796;10.952;2022-10-16T01:34:15;14.30;99.90
10883;DHT22;5494;51.796;10.952;2022-10-16T01:36:51;14.30;99.90
10883;DHT22;5494;51.796;10.952;2022-10-16T01:39:28;14.30;99.90
10883;DHT22;5494;51.796;10.952;2022-10-16T01:42:06;14.30;99.90
10883;DHT22;5494;51.796;10.952;2022-10-16T01:44:41;14.30;99.90
10883;DHT22;5494;51.796;10.952;2022-10-16T01:47:13;14.20;99.90
10883;DHT22;5494;51.796;10.952;2022-10-16T01:49:44;14.20;99.90
10883;DHT22;5494;51.796;10.952;2022-10-16T01:52:16;14.10;99.90
10883;DHT22;5494;51.796;10.952;2022-10-16T01:54:52;14.10;99.90
10883;DHT22;5494;51.796;10.952;2022-10-16T01:57:24;14.10;99.90
10883;DHT22;5494;51.796;10.952;2022-10-16T02:00:01;14.00;99.90
10883;DHT22;5494;51.796;10.952;2022-10-16T02:02:39;14.00;99.90
10883;DHT22;5494;51.796;10.952;2022-10-16T02:05:15;14.00;99.90
10883;DHT22;5494;51.796;10.952;2022-10-16T02:07:48;14.00;99.90
10883;DHT22;5494;51.796;10.952;2022-10-16T02:10:18;14.00;99.90
10883;DHT22;5494;51.796;10.952;2022-10-16T02:12:50;14.00;99.90
10883;DHT22;5494;51.796;10.952;2022-10-16T02:15:25;14.00;99.90
10883;DHT22;5494;51.796;10.952;2022-10-16T02:17:53;14.00;99.90
10883;DHT22;5494;51.796;10.952;2022-10-16T02:20:25;14.10;99.90
10883;DHT22;5494;51.796;10.952;2022-10-16T02:22:56;14.10;99.90
10883;DHT22;5494;51.796;10.952;2022-10-16T02:25:30;14.10;99.90
10883;DHT22;5494;51.796;10.952;2022-10-16T02:28:06;14.10;99.90
10883;DHT22;5494;51.796;10.952;2022-10-16T02:30:43;14.10;99.90
10883;DHT22;5494;51.796;10.952;2022-10-16T02:33:16;14.10;99.90
10883;DHT22;5494;51.796;10.952;2022-10-16T02:35:47;14.10;99.90
10883;DHT22;5494;51.796;10.952;2022-10-16T02:38:19;14.10;99.90
10883;DHT22;5494;51.796;10.952;2022-10-16T02:40:50;14.10;99.90
10883;DHT22;5494;51.796;10.952;2022-10-16T02:43:19;14.10;99.90
10883;DHT22;5494;51.796;10.952;2022-10-16T02:45:49;14.10;99.90
10883;DHT22;5494;51.796;10.952;2022-10-16T02:48:18;14.00;99.90
10883;DHT22;5494;51.796;10.952;2022-10-16T02:50:47;14.00;99.90
10883;DHT22;5494;51.796;10.952;2022-10-16T02:53:16;14.00;99.90
10883;DHT22;5494;51.796;10.952;2022-10-16T02:55:45;14.00;99.90
10883;DHT22;5494;51.796;10.952;2022-10-16T02:58:13;14.00;99.90
10883;DHT22;5494;51.796;10.952;2022-10-16T03:00:42;14.00;99.90
10883;DHT22;5494;51.796;10.952;2022-10-16T03:03:12;14.00;99.90
10883;DHT22;5494;51.796;10.952;2022-10-16T03:05:42;14.00;99.90
10883;DHT22;5494;51.796;10.952;2022-10-16T03:08:13;14.00;99.90
10883;DHT22;5494;51.796;10.952;2022-10-16T03:10:42;14.00;99.90
10883;DHT22;5494;51.796;10.952;2022-10-16T03:13:11;14.00;99.90
10883;DHT22;5494;51.796;10.952;2022-10-16T03:15:39;13.90;99.90
10883;DHT22;5494;51.796;10.952;2022-10-16T03:18:08;14.00;99.90
10883;DHT22;5494;51.796;10.952;2022-10-16T03:20:38;14.00;99.90
10883;DHT22;5494;51.796;10.952;2022-10-16T03:23:07;13.90;99.90
10883;DHT22;5494;51.796;10.952;2022-10-16T03:25:36;13.90;99.90
10883;DHT22;5494;51.796;10.952;2022-10-16T03:28:05;13.90;99.90
10883;DHT22;5494;51.796;10.952;2022-10-16T03:30:34;13.90;99.90
10883;DHT22;5494;51.796;10.952;2022-10-16T03:33:02;13.90;99.90
10883;DHT22;5494;51.796;10.952;2022-10-16T03:35:32;13.80;99.90
10883;DHT22;5494;51.796;10.952;2022-10-16T03:38:02;13.90;99.90
10883;DHT22;5494;51.796;10.952;2022-10-16T03:40:31;13.90;99.90
10883;DHT22;5494;51.796;10.952;2022-10-16T03:43:00;13.90;99.90
10883;DHT22;5494;51.796;10.952;2022-10-16T03:45:28;13.90;99.90
10883;DHT22;5494;51.796;10.952;2022-10-16T03:47:56;13.90;99.90
10883;DHT22;5494;51.796;10.952;2022-10-16T03:50:25;13.90;99.90
10883;DHT22;5494;51.796;10.952;2022-10-16T03:52:54;13.90;99.90
10883;DHT22;5494;51.796;10.952;2022-10-16T03:55:24;14.00;99.90
10883;DHT22;5494;51.796;10.952;2022-10-16T03:57:52;14.00;99.90
10883;DHT22;5494;51.796;10.952;2022-10-16T04:00:21;13.90;99.90
10883;DHT22;5494;51.796;10.952;2022-10-16T04:02:50;14.00;99.90
10883;DHT22;5494;51.796;10.952;2022-10-16T04:05:18;14.00;99.90
10883;DHT22;5494;51.796;10.952;2022-10-16T04:07:47;14.00;99.90
10883;DHT22;5494;51.796;10.952;2022-10-16T04:10:15;13.90;99.90
10883;DHT22;5494;51.796;10.952;2022-10-16T04:12:45;14.00;99.90
10883;DHT22;5494;51.796;10.952;2022-10-16T04:15:14;13.90;99.90
10883;DHT22;5494;51.796;10.952;2022-10-16T04:17:43;14.00;99.90
10883;DHT22;5494;51.796;10.952;2022-10-16T04:20:11;13.90;99.90
10883;DHT22;5494;51.796;10.952;2022-10-16T04:22:40;13.90;99.90
10883;DHT22;5494;51.796;10.952;2022-10-16T04:25:09;13.90;99.90
10883;DHT22;5494;51.796;10.952;2022-10-16T04:27:38;13.80;99.90
10883;DHT22;5494;51.796;10.952;2022-10-16T04:30:14;13.80;99.90
10883;DHT22;5494;51.796;10.952;2022-10-16T04:32:42;13.70;99.90
10883;DHT22;5494;51.796;10.952;2022-10-16T04:35:11;13.70;99.90
10883;DHT22;5494;51.796;10.952;2022-10-16T04:37:39;13.60;99.90
10883;DHT22;5494;51.796;10.952;2022-10-16T04:40:08;13.60;99.90
10883;DHT22;5494;51.796;10.952;2022-10-16T04:42:37;13.60;99.90
10883;DHT22;5494;51.796;10.952;2022-10-16T04:45:07;13.50;99.90
10883;DHT22;5494;51.796;10.952;2022-10-16T04:47:43;13.50;99.90
10883;DHT22;5494;51.796;10.952;2022-10-16T04:50:12;13.50;99.90
10883;DHT22;5494;51.796;10.952;2022-10-16T04:52:58;13.40;99.90
10883;DHT22;5494;51.796;10.952;2022-10-16T04:55:26;13.30;99.90
10883;DHT22;5494;51.796;10.952;2022-10-16T04:57:55;13.20;99.90
10883;DHT22;5494;51.796;10.952;2022-10-16T05:00:23;13.20;99.90
10883;DHT22;5494;51.796;10.952;2022-10-16T05:02:53;13.10;99.90
10883;DHT22;5494;51.796;10.952;2022-10-16T05:05:21;13.10;99.90
10883;DHT22;5494;51.796;10.952;2022-10-16T05:07:50;13.20;99.90
10883;DHT22;5494;51.796;10.952;2022-10-16T05:10:19;13.10;99.90
10883;DHT22;5494;51.796;10.952;2022-10-16T05:12:48;13.10;99.90
10883;DHT22;5494;51.796;10.952;2022-10-16T05:15:17;13.00;99.90
10883;DHT22;5494;51.796;10.952;2022-10-16T05:17:46;13.00;99.90
10883;DHT22;5494;51.796;10.952;2022-10-16T05:20:17;13.00;99.90
10883;DHT22;5494;51.796;10.952;2022-10-16T05:22:45;12.90;99.90
10883;DHT22;5494;51.796;10.952;2022-10-16T05:25:14;12.90;99.90
10883;DHT22;5494;51.796;10.952;2022-10-16T05:27:43;12.90;99.90
10883;DHT22;5494;51.796;10.952;2022-10-16T05:30:15;12.90;99.90
10883;DHT22;5494;51.796;10.952;2022-10-16T05:32:46;12.90;99.90
10883;DHT22;5494;51.796;10.952;2022-10-16T05:35:18;12.90;99.90
10883;DHT22;5494;51.796;10.952;2022-10-16T05:37:48;13.00;99.90
10883;DHT22;5494;51.796;10.952;2022-10-16T05:40:16;13.00;99.90
10883;DHT22;5494;51.796;10.952;2022-10-16T05:42:45;13.10;99.90
10883;DHT22;5494;51.796;10.952;2022-10-16T05:45:13;13.10;99.90
10883;DHT22;5494;51.796;10.952;2022-10-16T05:47:42;13.20;99.90
10883;DHT22;5494;51.796;10.952;2022-10-16T05:50:11;13.20;99.90
10883;DHT22;5494;51.796;10.952;2022-10-16T05:52:41;13.20;99.90
10883;DHT22;5494;51.796;10.952;2022-10-16T05:55:10;13.30;99.90
10883;DHT22;5494;51.796;10.952;2022-10-16T05:57:38;13.40;99.90
10883;DHT22;5494;51.796;10.952;2022-10-16T06:00:08;13.40;99.90
10883;DHT22;5494;51.796;10.952;2022-10-16T06:02:41;13.50;99.90
10883;DHT22;5494;51.796;10.952;2022-10-16T06:05:10;13.50;99.90
10883;DHT22;5494;51.796;10.952;2022-10-16T06:07:38;13.60;99.90
10883;DHT22;5494;51.796;10.952;2022-10-16T06:10:09;13.80;99.90
10883;DHT22;5494;51.796;10.952;2022-10-16T06:12:37;13.90;99.90
10883;DHT22;5494;51.796;10.952;2022-10-16T06:15:07;14.00;99.90
10883;DHT22;5494;51.796;10.952;2022-10-16T06:17:37;14.20;99.90
10883;DHT22;5494;51.796;10.952;2022-10-16T06:20:06;14.30;99.90
10883;DHT22;5494;51.796;10.952;2022-10-16T06:22:35;14.30;99.90
10883;DHT22;5494;51.796;10.952;2022-10-16T06:25:04;14.40;99.90
10883;DHT22;5494;51.796;10.952;2022-10-16T06:27:35;14.40;99.90
10883;DHT22;5494;51.796;10.952;2022-10-16T06:30:04;14.60;99.90
10883;DHT22;5494;51.796;10.952;2022-10-16T06:32:34;14.60;99.90
10883;DHT22;5494;51.796;10.952;2022-10-16T06:35:03;14.60;99.90
10883;DHT22;5494;51.796;10.952;2022-10-16T06:37:32;14.80;99.90
10883;DHT22;5494;51.796;10.952;2022-10-16T06:40:00;14.80;99.90
10883;DHT22;5494;51.796;10.952;2022-10-16T06:42:31;14.80;99.90
10883;DHT22;5494;51.796;10.952;2022-10-16T06:45:01;14.90;99.90
10883;DHT22;5494;51.796;10.952;2022-10-16T06:47:29;14.90;99.90
10883;DHT22;5494;51.796;10.952;2022-10-16T06:49:57;15.10;99.90
10883;DHT22;5494;51.796;10.952;2022-10-16T06:52:28;15.20;99.90
10883;DHT22;5494;51.796;10.952;2022-10-16T06:54:57;15.40;99.90
10883;DHT22;5494;51.796;10.952;2022-10-16T06:57:27;15.60;99.90
10883;DHT22;5494;51.796;10.952;2022-10-16T06:59:55;15.60;99.90
10883;DHT22;5494;51.796;10.952;2022-10-16T07:02:25;15.70;99.90
10883;DHT22;5494;51.796;10.952;2022-10-16T07:04:54;15.70;99.90
10883;DHT22;5494;51.796;10.952;2022-10-16T07:07:24;15.70;99.90
10883;DHT22;5494;51.796;10.952;2022-10-16T07:09:53;15.80;99.90
10883;DHT22;5494;51.796;10.952;2022-10-16T07:12:22;15.80;99.90
10883;DHT22;5494;51.796;10.952;2022-10-16T07:14:51;15.90;99.90
10883;DHT22;5494;51.796;10.952;2022-10-16T07:17:21;15.90;99.90
10883;DHT22;5494;51.796;10.952;2022-10-16T07:19:51;16.00;99.90
10883;DHT22;5494;51.796;10.952;2022-10-16T07:22:20;16.10;99.90
10883;DHT22;5494;51.796;10.952;2022-10-16T07:24:50;16.10;99.90
10883;DHT22;5494;51.796;10.952;2022-10-16T07:27:19;16.10;99.90
10883;DHT22;5494;51.796;10.952;2022-10-16T07:29:51;16.30;99.90
10883;DHT22;5494;51.796;10.952;2022-10-16T07:32:19;16.30;99.90
10883;DHT22;5494;51.796;10.952;2022-10-16T07:34:48;16.30;99.90
10883;DHT22;5494;51.796;10.952;2022-10-16T07:37:18;16.30;99.90
10883;DHT22;5494;51.796;10.952;2022-10-16T07:39:47;16.50;99.90
10883;DHT22;5494;51.796;10.952;2022-10-16T07:42:15;16.50;99.90
10883;DHT22;5494;51.796;10.952;2022-10-16T07:44:44;16.40;99.90
10883;DHT22;5494;51.796;10.952;2022-10-16T07:47:13;16.40;99.90
10883;DHT22;5494;51.796;10.952;2022-10-16T07:49:42;16.60;99.90
10883;DHT22;5494;51.796;10.952;2022-10-16T07:52:11;16.60;99.90
10883;DHT22;5494;51.796;10.952;2022-10-16T07:54:41;16.60;99.90
10883;DHT22;5494;51.796;10.952;2022-10-16T07:57:09;16.60;99.90
10883;DHT22;5494;51.796;10.952;2022-10-16T07:59:38;16.70;99.90
10883;DHT22;5494;51.796;10.952;2022-10-16T08:02:07;16.90;99.90
10883;DHT22;5494;51.796;10.952;2022-10-16T08:04:36;17.00;99.90
10883;DHT22;5494;51.796;10.952;2022-10-16T08:07:06;16.90;99.90
10883;DHT22;5494;51.796;10.952;2022-10-16T08:09:36;16.80;99.90
10883;DHT22;5494;51.796;10.952;2022-10-16T08:12:07;16.90;99.90
10883;DHT22;5494;51.796;10.952;2022-10-16T08:14:37;16.90;99.90
10883;DHT22;5494;51.796;10.952;2022-10-16T08:17:08;16.80;99.90
10883;DHT22;5494;51.796;10.952;2022-10-16T08:19:37;16.80;99.90
10883;DHT22;5494;51.796;10.952;2022-10-16T08:22:06;16.80;99.90
10883;DHT22;5494;51.796;10.952;2022-10-16T08:24:34;16.90;99.90
10883;DHT22;5494;51.796;10.952;2022-10-16T08:27:05;16.90;99.90
10883;DHT22;5494;51.796;10.952;2022-10-16T08:29:36;16.90;99.90
10883;DHT22;5494;51.796;10.952;2022-10-16T08:32:05;16.90;99.90
10883;DHT22;5494;51.796;10.952;2022-10-16T08:34:34;16.90;99.90
10883;DHT22;5494;51.796;10.952;2022-10-16T08:37:02;17.00;99.90
10883;DHT22;5494;51.796;10.952;2022-10-16T08:39:31;17.00;99.90
10883;DHT22;5494;51.796;10.952;2022-10-16T08:42:15;17.00;99.90
10883;DHT22;5494;51.796;10.952;2022-10-16T08:45:14;17.00;99.90
10883;DHT22;5494;51.796;10.952;2022-10-16T08:48:18;17.00;99.90
10883;DHT22;5494;51.796;10.952;2022-10-16T08:50:52;17.10;99.90
10883;DHT22;5494;51.796;10.952;2022-10-16T08:53:26;17.20;99.90
10883;DHT22;5494;51.796;10.952;2022-10-16T08:55:58;17.30;99.90
10883;DHT22;5494;51.796;10.952;2022-10-16T08:58:29;17.40;99.90
10883;DHT22;5494;51.796;10.952;2022-10-16T09:01:00;17.50;99.90
10883;DHT22;5494;51.796;10.952;2022-10-16T09:03:44;17.60;99.90
10883;DHT22;5494;51.796;10.952;2022-10-16T09:06:32;17.70;99.90
10883;DHT22;5494;51.796;10.952;2022-10-16T09:09:30;17.80;99.90
10883;DHT22;5494;51.796;10.952;2022-10-16T09:12:12;17.90;99.90
10883;DHT22;5494;51.796;10.952;2022-10-16T09:15:14;18.00;99.90
10883;DHT22;5494;51.796;10.952;2022-10-16T09:17:58;18.10;99.90
10883;DHT22;5494;51.796;10.952;2022-10-16T09:20:34;18.10;99.90
10883;DHT22;5494;51.796;10.952;2022-10-16T09:23:16;18.20;99.90
10883;DHT22;5494;51.796;10.952;2022-10-16T09:25:48;18.40;99.90
10883;DHT22;5494;51.796;10.952;2022-10-16T09:28:18;18.40;99.90
10883;DHT22;5494;51.796;10.952;2022-10-16T09:30:48;18.50;99.90
10883;DHT22;5494;51.796;10.952;2022-10-16T09:33:20;18.50;99.90
10883;DHT22;5494;51.796;10.952;2022-10-16T09:35:55;18.40;99.90
10883;DHT22;5494;51.796;10.952;2022-10-16T09:38:29;18.40;99.90
10883;DHT22;5494;51.796;10.952;2022-10-16T09:41:01;18.60;99.90
10883;DHT22;5494;51.796;10.952;2022-10-16T09:43:35;18.70;99.90
10883;DHT22;5494;51.796;10.952;2022-10-16T09:46:22;18.80;99.90
10883;DHT22;5494;51.796;10.952;2022-10-16T09:48:56;18.80;99.90
10883;DHT22;5494;51.796;10.952;2022-10-16T09:51:29;18.70;99.90
10883;DHT22;5494;51.796;10.952;2022-10-16T09:54:00;18.70;99.90
10883;DHT22;5494;51.796;10.952;2022-10-16T09:56:32;18.90;99.90
10883;DHT22;5494;51.796;10.952;2022-10-16T09:59:11;19.10;99.90
10883;DHT22;5494;51.796;10.952;2022-10-16T10:01:46;19.20;99.90
10883;DHT22;5494;51.796;10.952;2022-10-16T10:04:19;19.10;99.90
10883;DHT22;5494;51.796;10.952;2022-10-16T10:06:50;19.40;99.90
10883;DHT22;5494;51.796;10.952;2022-10-16T10:09:22;19.80;99.90
10883;DHT22;5494;51.796;10.952;2022-10-16T10:11:54;20.40;99.90
10883;DHT22;5494;51.796;10.952;2022-10-16T10:14:27;21.00;99.90
10883;DHT22;5494;51.796;10.952;2022-10-16T10:17:26;21.60;99.90
10883;DHT22;5494;51.796;10.952;2022-10-16T10:19:58;21.90;99.90
10883;DHT22;5494;51.796;10.952;2022-10-16T10:22:39;21.90;99.90
10883;DHT22;5494;51.796;10.952;2022-10-16T10:25:18;21.70;99.90
10883;DHT22;5494;51.796;10.952;2022-10-16T10:31:27;21.00;99.90
10883;DHT22;5494;51.796;10.952;2022-10-16T10:34:11;20.80;99.90
10883;DHT22;5494;51.796;10.952;2022-10-16T10:37:00;20.50;99.90
10883;DHT22;5494;51.796;10.952;2022-10-16T10:39:42;20.40;99.90
10883;DHT22;5494;51.796;10.952;2022-10-16T10:42:24;20.10;99.90
10883;DHT22;5494;51.796;10.952;2022-10-16T10:45:21;19.80;99.90
10883;DHT22;5494;51.796;10.952;2022-10-16T10:48:18;19.70;99.90
10883;DHT22;5494;51.796;10.952;2022-10-16T10:51:02;19.70;99.90
10883;DHT22;5494;51.796;10.952;2022-10-16T10:53:43;19.70;99.90
10883;DHT22;5494;51.796;10.952;2022-10-16T10:56:35;19.70;99.90
10883;DHT22;5494;51.796;10.952;2022-10-16T10:59:31;19.60;99.90
10883;DHT22;5494;51.796;10.952;2022-10-16T11:02:15;20.00;99.90
10883;DHT22;5494;51.796;10.952;2022-10-16T11:08:11;19.30;99.90
10883;DHT22;5494;51.796;10.952;2022-10-16T11:10:51;19.10;99.90
10883;DHT22;5494;51.796;10.952;2022-10-16T11:13:28;19.00;99.90
10883;DHT22;5494;51.796;10.952;2022-10-16T11:16:03;18.90;99.90
10883;DHT22;5494;51.796;10.952;2022-10-16T11:18:50;18.90;99.90
10883;DHT22;5494;51.796;10.952;2022-10-16T11:21:24;19.10;99.90
10883;DHT22;5494;51.796;10.952;2022-10-16T11:24:01;19.20;99.90
10883;DHT22;5494;51.796;10.952;2022-10-16T11:26:42;19.40;99.90
10883;DHT22;5494;51.796;10.952;2022-10-16T11:29:19;19.50;99.90
10883;DHT22;5494;51.796;10.952;2022-10-16T11:31:58;19.70;99.90
10883;DHT22;5494;51.796;10.952;2022-10-16T11:34:37;19.70;99.90
10883;DHT22;5494;51.796;10.952;2022-10-16T11:37:16;19.70;99.90
10883;DHT22;5494;51.796;10.952;2022-10-16T11:39:50;19.70;99.90
10883;DHT22;5494;51.796;10.952;2022-10-16T11:42:29;19.60;99.90
10883;DHT22;5494;51.796;10.952;2022-10-16T11:45:15;19.60;99.90
10883;DHT22;5494;51.796;10.952;2022-10-16T11:48:00;19.60;99.90
10883;DHT22;5494;51.796;10.952;2022-10-16T11:50:38;19.60;99.90
10883;DHT22;5494;51.796;10.952;2022-10-16T11:53:16;19.60;99.90
10883;DHT22;5494;51.796;10.952;2022-10-16T11:55:53;19.60;99.90
10883;DHT22;5494;51.796;10.952;2022-10-16T11:58:25;19.50;99.90
10883;DHT22;5494;51.796;10.952;2022-10-16T12:01:10;19.50;99.90
10883;DHT22;5494;51.796;10.952;2022-10-16T12:03:54;19.40;99.90
10883;DHT22;5494;51.796;10.952;2022-10-16T12:06:34;18.90;99.90
10883;DHT22;5494;51.796;10.952;2022-10-16T12:09:14;19.30;99.90
10883;DHT22;5494;51.796;10.952;2022-10-16T12:11:49;19.40;99.90
10883;DHT22;5494;51.796;10.952;2022-10-16T12:14:37;19.40;99.90
10883;DHT22;5494;51.796;10.952;2022-10-16T12:17:35;19.40;99.90
10883;DHT22;5494;51.796;10.952;2022-10-16T12:20:27;19.30;99.90
10883;DHT22;5494;51.796;10.952;2022-10-16T12:23:00;19.30;99.90
10883;DHT22;5494;51.796;10.952;2022-10-16T12:25:33;19.40;99.90
10883;DHT22;5494;51.796;10.952;2022-10-16T12:28:16;19.40;99.90
10883;DHT22;5494;51.796;10.952;2022-10-16T12:30:53;19.30;99.90
10883;DHT22;5494;51.796;10.952;2022-10-16T12:33:25;19.50;99.90
10883;DHT22;5494;51.796;10.952;2022-10-16T12:35:55;19.50;99.90
10883;DHT22;5494;51.796;10.952;2022-10-16T12:38:28;19.50;99.90
10883;DHT22;5494;51.796;10.952;2022-10-16T12:41:02;19.60;99.90
10883;DHT22;5494;51.796;10.952;2022-10-16T12:43:39;19.60;99.90
10883;DHT22;5494;51.796;10.952;2022-10-16T12:46:33;19.80;99.90
10883;DHT22;5494;51.796;10.952;2022-10-16T12:49:19;19.80;99.90
10883;DHT22;5494;51.796;10.952;2022-10-16T12:51:51;19.80;99.90
10883;DHT22;5494;51.796;10.952;2022-10-16T12:54:24;19.70;99.90
10883;DHT22;5494;51.796;10.952;2022-10-16T12:57:19;19.80;99.90
10883;DHT22;5494;51.796;10.952;2022-10-16T13:00:03;19.80;99.90
10883;DHT22;5494;51.796;10.952;2022-10-16T13:03:04;19.80;99.90
10883;DHT22;5494;51.796;10.952;2022-10-16T13:06:02;19.80;99.90
10883;DHT22;5494;51.796;10.952;2022-10-16T13:08:57;19.80;99.90
10883;DHT22;5494;51.796;10.952;2022-10-16T13:11:49;19.70;99.90
10883;DHT22;5494;51.796;10.952;2022-10-16T13:14:57;19.70;99.90
10883;DHT22;5494;51.796;10.952;2022-10-16T13:17:43;19.60;99.90
10883;DHT22;5494;51.796;10.952;2022-10-16T13:20:25;19.60;99.90
10883;DHT22;5494;51.796;10.952;2022-10-16T13:23:06;19.60;99.90
10883;DHT22;5494;51.796;10.952;2022-10-16T13:25:53;19.70;99.90
10883;DHT22;5494;51.796;10.952;2022-10-16T13:28:34;19.70;99.90
10883;DHT22;5494;51.796;10.952;2022-10-16T13:31:15;19.60;99.90
10883;DHT22;5494;51.796;10.952;2022-10-16T13:33:50;19.60;99.90
10883;DHT22;5494;51.796;10.952;2022-10-16T13:36:24;19.60;99.90
10883;DHT22;5494;51.796;10.952;2022-10-16T13:39:10;19.60;99.90
10883;DHT22;5494;51.796;10.952;2022-10-16T13:41:41;19.70;99.90
10883;DHT22;5494;51.796;10.952;2022-10-16T13:44:14;19.80;99.90
10883;DHT22;5494;51.796;10.952;2022-10-16T13:46:58;19.80;99.90
10883;DHT22;5494;51.796;10.952;2022-10-16T13:49:28;19.80;99.90
10883;DHT22;5494;51.796;10.952;2022-10-16T13:51:58;19.70;99.90
10883;DHT22;5494;51.796;10.952;2022-10-16T13:54:28;19.70;99.90
10883;DHT22;5494;51.796;10.952;2022-10-16T13:57:04;19.60;99.90
10883;DHT22;5494;51.796;10.952;2022-10-16T13:59:49;19.50;99.90
10883;DHT22;5494;51.796;10.952;2022-10-16T14:02:24;19.50;99.90
10883;DHT22;5494;51.796;10.952;2022-10-16T14:04:55;19.40;99.90
10883;DHT22;5494;51.796;10.952;2022-10-16T14:07:29;19.30;99.90
10883;DHT22;5494;51.796;10.952;2022-10-16T14:10:01;19.30;99.90
10883;DHT22;5494;51.796;10.952;2022-10-16T14:12:33;19.30;99.90
10883;DHT22;5494;51.796;10.952;2022-10-16T14:15:02;19.50;99.90
10883;DHT22;5494;51.796;10.952;2022-10-16T14:17:35;19.60;99.90
10883;DHT22;5494;51.796;10.952;2022-10-16T14:20:06;19.50;99.90
10883;DHT22;5494;51.796;10.952;2022-10-16T14:22:43;19.40;99.90
10883;DHT22;5494;51.796;10.952;2022-10-16T14:25:23;19.30;99.90
10883;DHT22;5494;51.796;10.952;2022-10-16T14:28:00;19.30;99.90
10883;DHT22;5494;51.796;10.952;2022-10-16T14:30:32;19.30;99.90
10883;DHT22;5494;51.796;10.952;2022-10-16T14:33:18;19.30;99.90
10883;DHT22;5494;51.796;10.952;2022-10-16T14:36:02;19.40;99.90
10883;DHT22;5494;51.796;10.952;2022-10-16T14:38:33;19.30;99.90
10883;DHT22;5494;51.796;10.952;2022-10-16T14:41:03;19.50;99.90
10883;DHT22;5494;51.796;10.952;2022-10-16T14:43:34;19.50;99.90
10883;DHT22;5494;51.796;10.952;2022-10-16T14:46:09;19.40;99.90
10883;DHT22;5494;51.796;10.952;2022-10-16T14:48:45;19.40;99.90
10883;DHT22;5494;51.796;10.952;2022-10-16T14:51:17;19.40;99.90
10883;DHT22;5494;51.796;10.952;2022-10-16T14:53:47;19.40;99.90
10883;DHT22;5494;51.796;10.952;2022-10-16T14:56:20;19.30;99.90
10883;DHT22;5494;51.796;10.952;2022-10-16T14:58:52;19.30;99.90
10883;DHT22;5494;51.796;10.952;2022-10-16T15:01:21;19.30;99.90
10883;DHT22;5494;51.796;10.952;2022-10-16T15:03:51;19.20;99.90
10883;DHT22;5494;51.796;10.952;2022-10-16T15:06:22;19.10;99.90
10883;DHT22;5494;51.796;10.952;2022-10-16T15:08:50;18.90;99.90
10883;DHT22;5494;51.796;10.952;2022-10-16T15:11:20;18.90;99.90
10883;DHT22;5494;51.796;10.952;2022-10-16T15:13:48;18.90;99.90
10883;DHT22;5494;51.796;10.952;2022-10-16T15:16:17;18.90;99.90
10883;DHT22;5494;51.796;10.952;2022-10-16T15:18:46;18.80;99.90
10883;DHT22;5494;51.796;10.952;2022-10-16T15:21:22;18.70;99.90
10883;DHT22;5494;51.796;10.952;2022-10-16T15:23:53;18.80;99.90
10883;DHT22;5494;51.796;10.952;2022-10-16T15:26:22;18.70;99.90
10883;DHT22;5494;51.796;10.952;2022-10-16T15:28:51;18.70;99.90
10883;DHT22;5494;51.796;10.952;2022-10-16T15:31:20;18.60;99.90
10883;DHT22;5494;51.796;10.952;2022-10-16T15:33:50;18.60;99.90
10883;DHT22;5494;51.796;10.952;2022-10-16T15:36:29;18.60;99.90
10883;DHT22;5494;51.796;10.952;2022-10-16T15:39:00;18.50;99.90
10883;DHT22;5494;51.796;10.952;2022-10-16T15:41:29;18.40;99.90
10883;DHT22;5494;51.796;10.952;2022-10-16T15:43:58;18.40;99.90
10883;DHT22;5494;51.796;10.952;2022-10-16T15:46:27;18.30;99.90
10883;DHT22;5494;51.796;10.952;2022-10-16T15:48:58;18.20;99.90
10883;DHT22;5494;51.796;10.952;2022-10-16T15:51:28;18.10;99.90
10883;DHT22;5494;51.796;10.952;2022-10-16T15:53:59;17.90;99.90
10883;DHT22;5494;51.796;10.952;2022-10-16T15:56:29;17.80;99.90
10883;DHT22;5494;51.796;10.952;2022-10-16T15:59:00;17.70;99.90
10883;DHT22;5494;51.796;10.952;2022-10-16T16:01:32;17.60;99.90
10883;DHT22;5494;51.796;10.952;2022-10-16T16:04:01;17.50;99.90
10883;DHT22;5494;51.796;10.952;2022-10-16T16:06:52;17.40;99.90
10883;DHT22;5494;51.796;10.952;2022-10-16T16:09:20;17.30;99.90
10883;DHT22;5494;51.796;10.952;2022-10-16T16:11:49;17.10;99.90
10883;DHT22;5494;51.796;10.952;2022-10-16T16:14:19;17.00;99.90
10883;DHT22;5494;51.796;10.952;2022-10-16T16:16:48;16.80;99.90
10883;DHT22;5494;51.796;10.952;2022-10-16T16:19:17;16.70;99.90